Spellbound — WDF2806 — position and weather

sailwx.info

Track history (hours):
 
Tides and Currents Weather Stations Pressure Air Temp Water Temp Dewpoint Dewpoint Depression Visibility Wind Speed Wind Dir Waves Ship Positions

Spellbound

Owner: reckling mrs, kathy r, cheyenne, WY. More information available from US FCC via Universal Licensing System and Coast Guard Vessel Documentation Center.

Last reported at 2015-May-10 23:29 UTC. Time now 2015-May-30 12:31 UTC.
Position N 41°28' W 070°55'.
Warning: this ship's position is 19 days out of date.

Type: Pleasure craft. MMSI: 367432110.

Date/timePositionNaut miles runAvg speedWind from/ knotsBaromVisibWave heightAir tempDewpointWater temp
2015-May-10 23:29N 41°28' W 070°55'6 6.7
2015-May-10 22:31N 41°25' W 071°03'8 8.0
2015-May-10 21:28N 41°25' W 071°14'6 2.9
2015-May-10 19:28N 41°29' W 071°19'2 0.1
2015-May-09 10:32N 41°28' W 071°21'5 5.4
2015-May-09 09:33N 41°24' W 071°25'5 5.1
2015-May-09 08:33N 41°20' W 071°30'5 4.8
2015-May-09 07:33N 41°17' W 071°35'4 4.4
2015-May-09 06:33N 41°14' W 071°39'5 4.5
2015-May-09 05:33N 41°10' W 071°42'5 5.5
2015-May-09 04:33N 41°05' W 071°45'6 5.6
2015-May-09 03:33N 41°00' W 071°48'5 5.0
2015-May-09 02:33N 40°56' W 071°51'4 3.8
2015-May-09 01:33N 40°52' W 071°53'5 5.4
2015-May-09 00:33N 40°48' W 071°57'6 6.4
2015-May-08 23:33N 40°42' W 072°01'5 4.7
2015-May-08 22:33N 40°38' W 072°05'6 5.8
2015-May-08 21:33N 40°33' W 072°09'6 5.6
2015-May-08 20:33N 40°28' W 072°12'5 5.4
2015-May-08 19:33N 40°24' W 072°15'6 5.7
2015-May-08 18:33N 40°19' W 072°19'6 5.6
2015-May-08 17:33N 40°14' W 072°23'6 5.7
2015-May-08 16:33N 40°09' W 072°27'6 6.1
2015-May-08 15:33N 40°04' W 072°32'6 6.0
2015-May-08 14:33N 39°59' W 072°36'6 6.3
2015-May-08 13:32N 39°54' W 072°40'6 6.6
2015-May-08 12:33N 39°49' W 072°46'5 5.2
2015-May-08 11:33N 39°45' W 072°50'5 4.7
2015-May-08 10:33N 39°41' W 072°54'5 5.0
2015-May-08 09:33N 39°37' W 072°57'5 3.6
2015-May-08 08:08N 39°32' W 073°00'0 0.3
2015-May-08 07:22N 39°32' W 072°60'1 0.9
2015-May-08 06:28N 39°33' W 072°59'7 3.5
2015-May-08 04:32N 39°27' W 073°04'7 5.3
2015-May-08 03:17N 39°21' W 073°06'5 5.8
2015-May-08 02:23N 39°16' W 073°07'  
Track history (hours):
 
Tides and Currents Weather Stations Pressure Air Temp Water Temp Dewpoint Dewpoint Depression Visibility Wind Speed Wind Dir Waves Ship Positions

Spellbound

Owner: reckling mrs, kathy r, cheyenne, WY. More information available from US FCC via Universal Licensing System and Coast Guard Vessel Documentation Center.

Last reported at 2015-May-10 23:29 UTC. Time now 2015-May-30 12:31 UTC.
Position N 41°28' W 070°55'.
Warning: this ship's position is 19 days out of date.

Type: Pleasure craft. MMSI: 367432110.

Date/timePositionNaut miles runAvg speedWind from/ knotsBaromVisibWave heightAir tempDewpointWater temp
2015-May-10 23:29N 41°28' W 070°55'6 6.7
2015-May-10 22:31N 41°25' W 071°03'8 8.0
2015-May-10 21:28N 41°25' W 071°14'6 2.9
2015-May-10 19:28N 41°29' W 071°19'2 0.1
2015-May-09 10:32N 41°28' W 071°21'5 5.4
2015-May-09 09:33N 41°24' W 071°25'5 5.1
2015-May-09 08:33N 41°20' W 071°30'5 4.8
2015-May-09 07:33N 41°17' W 071°35'4 4.4
2015-May-09 06:33N 41°14' W 071°39'5 4.5
2015-May-09 05:33N 41°10' W 071°42'5 5.5
2015-May-09 04:33N 41°05' W 071°45'6 5.6
2015-May-09 03:33N 41°00' W 071°48'5 5.0
2015-May-09 02:33N 40°56' W 071°51'4 3.8
2015-May-09 01:33N 40°52' W 071°53'5 5.4
2015-May-09 00:33N 40°48' W 071°57'6 6.4
2015-May-08 23:33N 40°42' W 072°01'5 4.7
2015-May-08 22:33N 40°38' W 072°05'6 5.8
2015-May-08 21:33N 40°33' W 072°09'6 5.6
2015-May-08 20:33N 40°28' W 072°12'5 5.4
2015-May-08 19:33N 40°24' W 072°15'6 5.7
2015-May-08 18:33N 40°19' W 072°19'6 5.6
2015-May-08 17:33N 40°14' W 072°23'6 5.7
2015-May-08 16:33N 40°09' W 072°27'6 6.1
2015-May-08 15:33N 40°04' W 072°32'6 6.0
2015-May-08 14:33N 39°59' W 072°36'6 6.3
2015-May-08 13:32N 39°54' W 072°40'6 6.6
2015-May-08 12:33N 39°49' W 072°46'5 5.2
2015-May-08 11:33N 39°45' W 072°50'5 4.7
2015-May-08 10:33N 39°41' W 072°54'5 5.0
2015-May-08 09:33N 39°37' W 072°57'5 3.6
2015-May-08 08:08N 39°32' W 073°00'0 0.3
2015-May-08 07:22N 39°32' W 072°60'1 0.9
2015-May-08 06:28N 39°33' W 072°59'7 3.5
2015-May-08 04:32N 39°27' W 073°04'7 5.3
2015-May-08 03:17N 39°21' W 073°06'5 5.8
2015-May-08 02:23N 39°16' W 073°07'  

Dump ship's entire track history